sensor_id;sensor_type;location;lat;lon;timestamp;pressure;altitude;pressure_sealevel;temperature;humidity
33161;BME280;19522;45.656;11.302;2024-01-30T00:01:41;100266.72;;;2.74;77.24
33161;BME280;19522;45.656;11.302;2024-01-30T00:04:07;100221.13;;;2.60;77.05
33161;BME280;19522;45.656;11.302;2024-01-30T00:06:32;100258.72;;;2.89;76.56
33161;BME280;19522;45.656;11.302;2024-01-30T00:08:58;100264.25;;;2.86;76.58
33161;BME280;19522;45.656;11.302;2024-01-30T00:11:26;100257.66;;;2.46;77.73
33161;BME280;19522;45.656;11.302;2024-01-30T00:13:54;100258.22;;;2.37;78.87
33161;BME280;19522;45.656;11.302;2024-01-30T00:16:22;100266.66;;;2.45;79.57
33161;BME280;19522;45.656;11.302;2024-01-30T00:18:50;100244.13;;;2.64;77.97
33161;BME280;19522;45.656;11.302;2024-01-30T00:21:15;100243.84;;;2.69;77.51
33161;BME280;19522;45.656;11.302;2024-01-30T00:23:41;100247.75;;;2.77;77.13
33161;BME280;19522;45.656;11.302;2024-01-30T00:26:06;100257.63;;;2.62;77.42
33161;BME280;19522;45.656;11.302;2024-01-30T00:28:32;100262.06;;;2.33;79.09
33161;BME280;19522;45.656;11.302;2024-01-30T00:30:57;100256.91;;;2.14;79.92
33161;BME280;19522;45.656;11.302;2024-01-30T00:33:23;100262.91;;;2.33;80.33
33161;BME280;19522;45.656;11.302;2024-01-30T00:35:48;100256.53;;;2.51;79.39
33161;BME280;19522;45.656;11.302;2024-01-30T00:38:14;100233.63;;;2.45;77.42
33161;BME280;19522;45.656;11.302;2024-01-30T00:40:39;100205.56;;;2.06;78.58
33161;BME280;19522;45.656;11.302;2024-01-30T00:43:08;100246.88;;;2.17;79.40
33161;BME280;19522;45.656;11.302;2024-01-30T00:45:37;100194.75;;;1.77;79.80
33161;BME280;19522;45.656;11.302;2024-01-30T00:48:03;100174.53;;;1.71;80.27
33161;BME280;19522;45.656;11.302;2024-01-30T00:50:29;100250.91;;;2.70;77.76
33161;BME280;19522;45.656;11.302;2024-01-30T00:52:54;100214.19;;;2.56;76.45
33161;BME280;19522;45.656;11.302;2024-01-30T00:55:20;100189.28;;;2.39;76.37
33161;BME280;19522;45.656;11.302;2024-01-30T00:57:46;100265.69;;;2.77;76.32
33161;BME280;19522;45.656;11.302;2024-01-30T01:00:13;100122.75;;;1.86;76.16
33161;BME280;19522;45.656;11.302;2024-01-30T01:02:41;100093.66;;;1.34;77.56
33161;BME280;19522;45.656;11.302;2024-01-30T01:05:06;100268.13;;;2.21;79.19
33161;BME280;19522;45.656;11.302;2024-01-30T01:07:32;100157.50;;;1.42;79.91
33161;BME280;19522;45.656;11.302;2024-01-30T01:09:58;100195.66;;;1.61;80.39
33161;BME280;19522;45.656;11.302;2024-01-30T01:12:23;100264.25;;;2.41;79.35
33161;BME280;19522;45.656;11.302;2024-01-30T01:14:49;100258.66;;;2.60;77.51
33161;BME280;19522;45.656;11.302;2024-01-30T01:17:15;100114.97;;;1.51;77.66
33161;BME280;19522;45.656;11.302;2024-01-30T01:19:40;100268.19;;;2.35;78.01
33161;BME280;19522;45.656;11.302;2024-01-30T01:22:06;100261.00;;;2.05;79.53
33161;BME280;19522;45.656;11.302;2024-01-30T01:24:31;100173.53;;;1.58;79.92
33161;BME280;19522;45.656;11.302;2024-01-30T01:26:58;100269.06;;;2.05;80.67
33161;BME280;19522;45.656;11.302;2024-01-30T01:29:24;100268.91;;;2.23;80.27
33161;BME280;19522;45.656;11.302;2024-01-30T01:31:57;100259.63;;;2.59;78.02
33161;BME280;19522;45.656;11.302;2024-01-30T01:34:23;100262.03;;;2.63;76.71
33161;BME280;19522;45.656;11.302;2024-01-30T01:36:53;100056.59;;;0.96;77.99
33161;BME280;19522;45.656;11.302;2024-01-30T01:39:21;100238.13;;;1.83;79.40
33161;BME280;19522;45.656;11.302;2024-01-30T01:41:48;100258.50;;;2.02;79.95
33161;BME280;19522;45.656;11.302;2024-01-30T01:44:13;100107.00;;;1.19;80.04
33161;BME280;19522;45.656;11.302;2024-01-30T01:49:25;100251.97;;;2.53;76.42
33161;BME280;19522;45.656;11.302;2024-01-30T01:51:54;100255.34;;;2.26;77.93
33161;BME280;19522;45.656;11.302;2024-01-30T01:54:22;100264.88;;;2.15;78.89
33161;BME280;19522;45.656;11.302;2024-01-30T01:56:49;100249.06;;;2.11;79.31
33161;BME280;19522;45.656;11.302;2024-01-30T01:59:15;100253.41;;;2.28;79.44
33161;BME280;19522;45.656;11.302;2024-01-30T02:01:41;100250.22;;;2.52;77.33
33161;BME280;19522;45.656;11.302;2024-01-30T02:04:07;100139.53;;;1.74;76.75
33161;BME280;19522;45.656;11.302;2024-01-30T02:06:34;100085.63;;;1.64;76.10
33161;BME280;19522;45.656;11.302;2024-01-30T02:09:01;100197.03;;;1.99;77.65
33161;BME280;19522;45.656;11.302;2024-01-30T02:11:28;100250.09;;;2.08;79.01
33161;BME280;19522;45.656;11.302;2024-01-30T02:13:53;100251.25;;;2.04;79.53
33161;BME280;19522;45.656;11.302;2024-01-30T02:16:19;100246.03;;;2.01;80.16
33161;BME280;19522;45.656;11.302;2024-01-30T02:18:45;100223.53;;;1.73;80.36
33161;BME280;19522;45.656;11.302;2024-01-30T02:21:16;100220.19;;;2.00;80.17
33161;BME280;19522;45.656;11.302;2024-01-30T02:23:44;100233.53;;;2.46;78.42
33161;BME280;19522;45.656;11.302;2024-01-30T02:26:11;100243.25;;;2.49;77.52
33161;BME280;19522;45.656;11.302;2024-01-30T02:28:37;100086.69;;;1.62;76.49
33161;BME280;19522;45.656;11.302;2024-01-30T02:31:03;100188.78;;;2.18;76.71
33161;BME280;19522;45.656;11.302;2024-01-30T02:33:29;100241.56;;;2.46;76.76
33161;BME280;19522;45.656;11.302;2024-01-30T02:35:54;100187.09;;;2.01;77.16
33161;BME280;19522;45.656;11.302;2024-01-30T02:38:20;100118.16;;;1.42;77.92
33161;BME280;19522;45.656;11.302;2024-01-30T02:40:46;100237.59;;;1.93;79.80
33161;BME280;19522;45.656;11.302;2024-01-30T02:43:12;100237.06;;;2.02;79.96
33161;BME280;19522;45.656;11.302;2024-01-30T02:45:37;100232.00;;;2.12;79.05
33161;BME280;19522;45.656;11.302;2024-01-30T02:48:03;100226.31;;;2.32;77.87
33161;BME280;19522;45.656;11.302;2024-01-30T02:50:29;100226.16;;;2.36;77.74
33161;BME280;19522;45.656;11.302;2024-01-30T02:52:54;100231.06;;;2.13;77.68
33161;BME280;19522;45.656;11.302;2024-01-30T02:55:20;100235.31;;;2.01;79.44
33161;BME280;19522;45.656;11.302;2024-01-30T02:57:45;100229.03;;;2.16;79.16
33161;BME280;19522;45.656;11.302;2024-01-30T03:00:11;100100.53;;;1.54;78.02
33161;BME280;19522;45.656;11.302;2024-01-30T03:02:37;100225.78;;;2.11;78.63
33161;BME280;19522;45.656;11.302;2024-01-30T03:05:04;100228.97;;;2.18;77.79
33161;BME280;19522;45.656;11.302;2024-01-30T03:07:30;100215.31;;;2.23;77.57
33161;BME280;19522;45.656;11.302;2024-01-30T03:09:55;100067.44;;;1.08;77.93
33161;BME280;19522;45.656;11.302;2024-01-30T03:12:22;100223.63;;;1.71;79.75
33161;BME280;19522;45.656;11.302;2024-01-30T03:14:47;100218.44;;;1.52;81.28
33161;BME280;19522;45.656;11.302;2024-01-30T03:17:13;100207.31;;;1.44;81.61
33161;BME280;19522;45.656;11.302;2024-01-30T03:19:39;100216.47;;;2.02;80.01
33161;BME280;19522;45.656;11.302;2024-01-30T03:22:04;100157.53;;;1.56;80.09
33161;BME280;19522;45.656;11.302;2024-01-30T03:24:30;100218.25;;;1.88;79.95
33161;BME280;19522;45.656;11.302;2024-01-30T03:26:56;100109.09;;;1.45;78.86
33161;BME280;19522;45.656;11.302;2024-01-30T03:29:21;100223.66;;;2.02;79.68
33161;BME280;19522;45.656;11.302;2024-01-30T03:31:47;100211.63;;;2.09;79.25
33161;BME280;19522;45.656;11.302;2024-01-30T03:34:12;100215.03;;;2.27;77.54
33161;BME280;19522;45.656;11.302;2024-01-30T03:36:38;100188.28;;;1.81;77.75
33161;BME280;19522;45.656;11.302;2024-01-30T03:39:03;100200.09;;;1.77;79.39
33161;BME280;19522;45.656;11.302;2024-01-30T03:41:29;100204.09;;;1.69;80.32
33161;BME280;19522;45.656;11.302;2024-01-30T03:43:58;100170.00;;;1.41;81.11
33161;BME280;19522;45.656;11.302;2024-01-30T03:46:23;100189.78;;;1.54;81.39
33161;BME280;19522;45.656;11.302;2024-01-30T03:48:49;100200.47;;;2.01;79.58
33161;BME280;19522;45.656;11.302;2024-01-30T03:51:15;100049.56;;;1.25;77.96
33161;BME280;19522;45.656;11.302;2024-01-30T03:53:44;100120.69;;;1.76;77.50
33161;BME280;19522;45.656;11.302;2024-01-30T03:56:11;100199.72;;;1.99;77.98
33161;BME280;19522;45.656;11.302;2024-01-30T03:58:38;100205.25;;;1.96;78.62
33161;BME280;19522;45.656;11.302;2024-01-30T04:01:04;100196.44;;;1.94;78.99
33161;BME280;19522;45.656;11.302;2024-01-30T04:03:29;100207.44;;;1.89;78.65
33161;BME280;19522;45.656;11.302;2024-01-30T04:05:55;100197.78;;;1.86;79.44
33161;BME280;19522;45.656;11.302;2024-01-30T04:08:21;100194.06;;;1.73;80.13
33161;BME280;19522;45.656;11.302;2024-01-30T04:10:46;100189.94;;;1.35;81.40
33161;BME280;19522;45.656;11.302;2024-01-30T04:13:15;100154.38;;;1.33;81.97
33161;BME280;19522;45.656;11.302;2024-01-30T04:15:40;100196.22;;;1.66;81.11
33161;BME280;19522;45.656;11.302;2024-01-30T04:18:06;100183.44;;;1.71;80.75
33161;BME280;19522;45.656;11.302;2024-01-30T04:20:34;100180.78;;;1.71;80.25
33161;BME280;19522;45.656;11.302;2024-01-30T04:23:00;100185.72;;;1.63;80.56
33161;BME280;19522;45.656;11.302;2024-01-30T04:25:25;100184.31;;;1.40;81.69
33161;BME280;19522;45.656;11.302;2024-01-30T04:27:51;100061.19;;;0.61;82.48
33161;BME280;19522;45.656;11.302;2024-01-30T04:30:19;100186.84;;;1.43;81.63
33161;BME280;19522;45.656;11.302;2024-01-30T04:32:45;100185.97;;;1.59;81.42
33161;BME280;19522;45.656;11.302;2024-01-30T04:35:10;100190.06;;;1.80;79.73
33161;BME280;19522;45.656;11.302;2024-01-30T04:37:36;100187.31;;;1.82;78.86
33161;BME280;19522;45.656;11.302;2024-01-30T04:40:02;100184.19;;;1.74;79.31
33161;BME280;19522;45.656;11.302;2024-01-30T04:42:28;100190.47;;;1.58;80.41
33161;BME280;19522;45.656;11.302;2024-01-30T04:44:53;100189.06;;;1.67;79.75
33161;BME280;19522;45.656;11.302;2024-01-30T04:47:19;100185.91;;;1.44;80.63
33161;BME280;19522;45.656;11.302;2024-01-30T04:49:44;100185.47;;;1.20;82.22
33161;BME280;19522;45.656;11.302;2024-01-30T04:52:10;100156.66;;;1.25;82.11
33161;BME280;19522;45.656;11.302;2024-01-30T04:54:36;100185.72;;;1.31;81.90
33161;BME280;19522;45.656;11.302;2024-01-30T04:57:02;100186.06;;;1.41;81.62
33161;BME280;19522;45.656;11.302;2024-01-30T04:59:28;100185.72;;;1.31;81.95
33161;BME280;19522;45.656;11.302;2024-01-30T05:01:53;100173.09;;;1.49;80.64
33161;BME280;19522;45.656;11.302;2024-01-30T05:04:19;100186.84;;;1.43;80.75
33161;BME280;19522;45.656;11.302;2024-01-30T05:06:45;100178.06;;;1.25;81.57
33161;BME280;19522;45.656;11.302;2024-01-30T05:09:10;100192.28;;;1.26;81.81
33161;BME280;19522;45.656;11.302;2024-01-30T05:11:40;100184.34;;;1.08;82.55
33161;BME280;19522;45.656;11.302;2024-01-30T05:14:05;100192.03;;;1.62;80.83
33161;BME280;19522;45.656;11.302;2024-01-30T05:16:31;100178.00;;;1.73;78.89
33161;BME280;19522;45.656;11.302;2024-01-30T05:18:58;100175.72;;;1.81;78.05
33161;BME280;19522;45.656;11.302;2024-01-30T05:21:27;100181.44;;;1.75;78.23
33161;BME280;19522;45.656;11.302;2024-01-30T05:23:52;100133.97;;;1.47;77.67
33161;BME280;19522;45.656;11.302;2024-01-30T05:26:18;100195.81;;;1.58;78.76
33161;BME280;19522;45.656;11.302;2024-01-30T05:28:46;100207.16;;;1.31;80.23
33161;BME280;19522;45.656;11.302;2024-01-30T05:31:12;100188.25;;;1.18;81.35
33161;BME280;19522;45.656;11.302;2024-01-30T05:33:37;100182.25;;;1.13;81.84
33161;BME280;19522;45.656;11.302;2024-01-30T05:36:03;100195.38;;;1.66;80.02
33161;BME280;19522;45.656;11.302;2024-01-30T05:38:29;100178.69;;;1.61;79.00
33161;BME280;19522;45.656;11.302;2024-01-30T05:40:55;100203.41;;;1.66;78.64
33161;BME280;19522;45.656;11.302;2024-01-30T05:43:23;100189.94;;;1.51;78.88
33161;BME280;19522;45.656;11.302;2024-01-30T05:45:48;100180.19;;;1.50;79.11
33161;BME280;19522;45.656;11.302;2024-01-30T05:48:14;100173.88;;;1.35;79.54
33161;BME280;19522;45.656;11.302;2024-01-30T05:50:39;100204.34;;;1.17;80.51
33161;BME280;19522;45.656;11.302;2024-01-30T05:53:05;100209.13;;;1.28;81.17
33161;BME280;19522;45.656;11.302;2024-01-30T05:55:30;100203.84;;;1.42;80.44
33161;BME280;19522;45.656;11.302;2024-01-30T05:57:56;100205.47;;;1.61;79.18
33161;BME280;19522;45.656;11.302;2024-01-30T06:00:21;100201.53;;;1.68;78.43
33161;BME280;19522;45.656;11.302;2024-01-30T06:02:47;100206.44;;;1.60;79.02
33161;BME280;19522;45.656;11.302;2024-01-30T06:05:12;100189.34;;;1.30;79.77
33161;BME280;19522;45.656;11.302;2024-01-30T06:07:38;100211.63;;;1.47;79.20
33161;BME280;19522;45.656;11.302;2024-01-30T06:10:06;100204.47;;;1.47;78.68
33161;BME280;19522;45.656;11.302;2024-01-30T06:12:37;100207.56;;;1.55;78.46
33161;BME280;19522;45.656;11.302;2024-01-30T06:15:03;100180.63;;;1.43;78.18
33161;BME280;19522;45.656;11.302;2024-01-30T06:17:29;100194.88;;;1.27;79.32
33161;BME280;19522;45.656;11.302;2024-01-30T06:19:54;100199.00;;;1.33;79.80
33161;BME280;19522;45.656;11.302;2024-01-30T06:22:20;100144.63;;;1.00;79.13
33161;BME280;19522;45.656;11.302;2024-01-30T06:24:45;100192.19;;;1.27;79.40
33161;BME280;19522;45.656;11.302;2024-01-30T06:27:13;100202.31;;;1.38;79.54
33161;BME280;19522;45.656;11.302;2024-01-30T06:29:39;100172.94;;;1.04;79.46
33161;BME280;19522;45.656;11.302;2024-01-30T06:32:05;100204.25;;;1.66;77.75
33161;BME280;19522;45.656;11.302;2024-01-30T06:34:31;100206.78;;;1.69;77.25
33161;BME280;19522;45.656;11.302;2024-01-30T06:36:56;100214.03;;;1.67;77.22
33161;BME280;19522;45.656;11.302;2024-01-30T06:39:22;100199.53;;;1.55;77.36
33161;BME280;19522;45.656;11.302;2024-01-30T06:41:48;100217.06;;;1.45;78.44
33161;BME280;19522;45.656;11.302;2024-01-30T06:44:14;100227.09;;;1.42;79.26
33161;BME280;19522;45.656;11.302;2024-01-30T06:46:40;100222.69;;;1.57;78.49
33161;BME280;19522;45.656;11.302;2024-01-30T06:49:05;100217.06;;;1.61;77.76
33161;BME280;19522;45.656;11.302;2024-01-30T06:51:31;100226.97;;;1.91;76.21
33161;BME280;19522;45.656;11.302;2024-01-30T06:53:56;100225.78;;;1.81;75.77
33161;BME280;19522;45.656;11.302;2024-01-30T06:56:22;100225.50;;;1.85;76.30
33161;BME280;19522;45.656;11.302;2024-01-30T06:58:48;100232.66;;;1.85;76.20
33161;BME280;19522;45.656;11.302;2024-01-30T07:01:14;100207.72;;;1.68;76.00
33161;BME280;19522;45.656;11.302;2024-01-30T07:03:41;100220.19;;;1.53;77.41
33161;BME280;19522;45.656;11.302;2024-01-30T07:06:10;100242.38;;;1.39;78.49
33161;BME280;19522;45.656;11.302;2024-01-30T07:08:39;100241.06;;;1.15;79.77
33161;BME280;19522;45.656;11.302;2024-01-30T07:11:07;100238.06;;;1.37;79.47
33161;BME280;19522;45.656;11.302;2024-01-30T07:13:34;100235.03;;;1.43;79.12
33161;BME280;19522;45.656;11.302;2024-01-30T07:16:00;100217.31;;;1.73;77.59
33161;BME280;19522;45.656;11.302;2024-01-30T07:18:25;100234.50;;;1.84;76.96
33161;BME280;19522;45.656;11.302;2024-01-30T07:20:52;100227.84;;;1.60;77.34
33161;BME280;19522;45.656;11.302;2024-01-30T07:23:17;100237.06;;;1.86;76.43
33161;BME280;19522;45.656;11.302;2024-01-30T07:25:43;100230.00;;;1.85;76.21
33161;BME280;19522;45.656;11.302;2024-01-30T07:28:10;100245.72;;;1.91;76.22
33161;BME280;19522;45.656;11.302;2024-01-30T07:30:37;100244.41;;;1.98;76.20
33161;BME280;19522;45.656;11.302;2024-01-30T07:33:03;100233.47;;;1.71;76.39
33161;BME280;19522;45.656;11.302;2024-01-30T07:35:29;100250.16;;;1.44;78.25
33161;BME280;19522;45.656;11.302;2024-01-30T07:37:54;100182.94;;;1.17;78.40
33161;BME280;19522;45.656;11.302;2024-01-30T07:40:20;100244.59;;;1.95;76.48
33161;BME280;19522;45.656;11.302;2024-01-30T07:42:45;100239.84;;;2.00;75.83
33161;BME280;19522;45.656;11.302;2024-01-30T07:45:11;100255.03;;;2.00;75.79
33161;BME280;19522;45.656;11.302;2024-01-30T07:47:36;100255.22;;;1.97;76.11
33161;BME280;19522;45.656;11.302;2024-01-30T07:50:02;100249.41;;;2.05;76.05
33161;BME280;19522;45.656;11.302;2024-01-30T07:52:28;100233.59;;;2.00;75.29
33161;BME280;19522;45.656;11.302;2024-01-30T07:54:54;100254.22;;;2.14;75.10
33161;BME280;19522;45.656;11.302;2024-01-30T07:57:20;100253.41;;;2.28;74.62
33161;BME280;19522;45.656;11.302;2024-01-30T07:59:46;100199.50;;;1.88;74.67
33161;BME280;19522;45.656;11.302;2024-01-30T08:02:12;100234.09;;;2.07;74.76
33161;BME280;19522;45.656;11.302;2024-01-30T08:04:43;100254.53;;;2.40;74.21
33161;BME280;19522;45.656;11.302;2024-01-30T08:07:09;100234.13;;;2.52;73.16
33161;BME280;19522;45.656;11.302;2024-01-30T08:09:37;100258.22;;;2.82;72.04
33161;BME280;19522;45.656;11.302;2024-01-30T08:12:03;100256.03;;;2.89;71.91
33161;BME280;19522;45.656;11.302;2024-01-30T08:14:28;100239.75;;;2.92;71.22
33161;BME280;19522;45.656;11.302;2024-01-30T08:16:54;100257.16;;;3.14;70.88
33161;BME280;19522;45.656;11.302;2024-01-30T08:19:20;100254.00;;;3.36;70.58
33161;BME280;19522;45.656;11.302;2024-01-30T08:21:45;100244.41;;;3.46;70.18
33161;BME280;19522;45.656;11.302;2024-01-30T08:24:11;100185.44;;;3.16;70.14
33161;BME280;19522;45.656;11.302;2024-01-30T08:26:36;100248.88;;;3.60;69.75
33161;BME280;19522;45.656;11.302;2024-01-30T08:29:02;100228.22;;;3.61;68.92
33161;BME280;19522;45.656;11.302;2024-01-30T08:31:27;100245.13;;;3.90;68.95
33161;BME280;19522;45.656;11.302;2024-01-30T08:33:53;100246.22;;;4.00;68.02
33161;BME280;19522;45.656;11.302;2024-01-30T08:36:19;100237.22;;;4.01;67.99
33161;BME280;19522;45.656;11.302;2024-01-30T08:38:45;100239.94;;;4.14;66.86
33161;BME280;19522;45.656;11.302;2024-01-30T08:41:10;100237.47;;;4.64;64.72
33161;BME280;19522;45.656;11.302;2024-01-30T08:43:36;100233.56;;;4.68;63.60
33161;BME280;19522;45.656;11.302;2024-01-30T08:46:02;100232.41;;;4.73;63.38
33161;BME280;19522;45.656;11.302;2024-01-30T08:48:28;100236.25;;;4.68;63.56
33161;BME280;19522;45.656;11.302;2024-01-30T08:50:54;100206.97;;;4.51;64.06
33161;BME280;19522;45.656;11.302;2024-01-30T08:53:19;100233.25;;;4.73;64.28
33161;BME280;19522;45.656;11.302;2024-01-30T08:55:45;100229.50;;;4.76;64.21
33161;BME280;19522;45.656;11.302;2024-01-30T08:58:10;100224.00;;;4.77;63.74
33161;BME280;19522;45.656;11.302;2024-01-30T09:00:36;100236.50;;;4.91;63.63
33161;BME280;19522;45.656;11.302;2024-01-30T09:03:03;100236.03;;;4.97;63.85
33161;BME280;19522;45.656;11.302;2024-01-30T09:05:28;100226.78;;;5.02;64.27
33161;BME280;19522;45.656;11.302;2024-01-30T09:07:54;100223.53;;;5.22;63.91
33161;BME280;19522;45.656;11.302;2024-01-30T09:10:19;100224.97;;;5.39;63.57
33161;BME280;19522;45.656;11.302;2024-01-30T09:12:45;100243.47;;;5.70;62.06
33161;BME280;19522;45.656;11.302;2024-01-30T09:15:11;100229.03;;;5.82;60.83
33161;BME280;19522;45.656;11.302;2024-01-30T09:17:36;100239.50;;;6.00;60.50
33161;BME280;19522;45.656;11.302;2024-01-30T09:20:02;100239.34;;;6.26;60.41
33161;BME280;19522;45.656;11.302;2024-01-30T09:22:28;100230.72;;;6.56;59.54
33161;BME280;19522;45.656;11.302;2024-01-30T09:24:53;100217.25;;;6.67;59.29
33161;BME280;19522;45.656;11.302;2024-01-30T09:27:19;100242.44;;;6.79;59.82
33161;BME280;19522;45.656;11.302;2024-01-30T09:29:45;100243.19;;;6.81;59.34
33161;BME280;19522;45.656;11.302;2024-01-30T09:32:10;100235.81;;;6.83;57.44
33161;BME280;19522;45.656;11.302;2024-01-30T09:34:36;100229.94;;;7.01;56.83
33161;BME280;19522;45.656;11.302;2024-01-30T09:37:02;100234.00;;;7.29;55.09
33161;BME280;19522;45.656;11.302;2024-01-30T09:39:27;100237.66;;;7.62;53.61
33161;BME280;19522;45.656;11.302;2024-01-30T09:42:03;100217.16;;;7.92;50.94
33161;BME280;19522;45.656;11.302;2024-01-30T09:44:30;100230.09;;;8.42;51.06
33161;BME280;19522;45.656;11.302;2024-01-30T09:46:56;100241.16;;;8.93;49.18
33161;BME280;19522;45.656;11.302;2024-01-30T09:49:30;100242.34;;;9.31;47.35
33161;BME280;19522;45.656;11.302;2024-01-30T09:51:57;100206.25;;;9.31;46.47
33161;BME280;19522;45.656;11.302;2024-01-30T09:54:23;100228.91;;;9.71;45.91
33161;BME280;19522;45.656;11.302;2024-01-30T09:56:48;100184.25;;;9.85;45.24
33161;BME280;19522;45.656;11.302;2024-01-30T09:59:14;100228.88;;;10.60;43.82
33161;BME280;19522;45.656;11.302;2024-01-30T10:01:40;100228.34;;;10.95;42.87
33161;BME280;19522;45.656;11.302;2024-01-30T10:04:07;100226.81;;;11.30;41.67
33161;BME280;19522;45.656;11.302;2024-01-30T10:06:32;100215.31;;;11.64;41.02
33161;BME280;19522;45.656;11.302;2024-01-30T10:09:01;100215.31;;;12.28;39.83
33161;BME280;19522;45.656;11.302;2024-01-30T10:11:29;100208.22;;;12.53;38.89
33161;BME280;19522;45.656;11.302;2024-01-30T10:13:55;100215.50;;;12.97;38.00
33161;BME280;19522;45.656;11.302;2024-01-30T10:16:21;100208.50;;;13.21;37.07
33161;BME280;19522;45.656;11.302;2024-01-30T10:18:46;100194.28;;;13.44;37.58
33161;BME280;19522;45.656;11.302;2024-01-30T10:21:12;100205.38;;;14.01;36.33
33161;BME280;19522;45.656;11.302;2024-01-30T10:23:38;100209.16;;;14.50;35.14
33161;BME280;19522;45.656;11.302;2024-01-30T10:26:04;100198.28;;;14.75;34.66
33161;BME280;19522;45.656;11.302;2024-01-30T10:28:29;100204.53;;;15.08;33.10
33161;BME280;19522;45.656;11.302;2024-01-30T10:31:02;100193.69;;;15.32;32.94
33161;BME280;19522;45.656;11.302;2024-01-30T10:33:32;100189.41;;;15.69;33.35
33161;BME280;19522;45.656;11.302;2024-01-30T10:36:01;100185.22;;;16.13;32.87
33161;BME280;19522;45.656;11.302;2024-01-30T10:38:31;100184.81;;;17.01;31.21
33161;BME280;19522;45.656;11.302;2024-01-30T10:40:58;100167.53;;;17.67;31.01
33161;BME280;19522;45.656;11.302;2024-01-30T10:43:31;100167.38;;;17.38;30.81
33161;BME280;19522;45.656;11.302;2024-01-30T10:46:06;100156.44;;;17.60;30.11
33161;BME280;19522;45.656;11.302;2024-01-30T10:48:36;100166.16;;;17.78;30.81
33161;BME280;19522;45.656;11.302;2024-01-30T10:51:08;100155.16;;;17.78;28.35
33161;BME280;19522;45.656;11.302;2024-01-30T10:53:34;100146.19;;;17.32;29.02
33161;BME280;19522;45.656;11.302;2024-01-30T10:56:01;100159.56;;;16.67;28.44
33161;BME280;19522;45.656;11.302;2024-01-30T10:58:27;100147.94;;;16.27;29.05
33161;BME280;19522;45.656;11.302;2024-01-30T11:00:54;100149.53;;;16.21;30.04
33161;BME280;19522;45.656;11.302;2024-01-30T11:03:20;100142.09;;;16.68;30.30
33161;BME280;19522;45.656;11.302;2024-01-30T11:05:50;100132.63;;;16.86;30.06
33161;BME280;19522;45.656;11.302;2024-01-30T11:08:23;100135.59;;;16.99;29.75
33161;BME280;19522;45.656;11.302;2024-01-30T11:10:55;100144.88;;;16.60;30.41
33161;BME280;19522;45.656;11.302;2024-01-30T11:13:21;100122.34;;;16.34;30.14
33161;BME280;19522;45.656;11.302;2024-01-30T11:15:47;100132.44;;;16.72;29.32
33161;BME280;19522;45.656;11.302;2024-01-30T11:18:23;100130.63;;;16.49;28.03
33161;BME280;19522;45.656;11.302;2024-01-30T11:20:49;100131.59;;;16.72;27.65
33161;BME280;19522;45.656;11.302;2024-01-30T11:23:15;100126.31;;;15.54;28.01
33161;BME280;19522;45.656;11.302;2024-01-30T11:25:41;100104.97;;;15.18;29.72
33161;BME280;19522;45.656;11.302;2024-01-30T11:28:16;100118.94;;;15.63;30.33
33161;BME280;19522;45.656;11.302;2024-01-30T11:30:41;100113.25;;;15.96;30.58
33161;BME280;19522;45.656;11.302;2024-01-30T11:33:09;100113.97;;;15.26;30.84
33161;BME280;19522;45.656;11.302;2024-01-30T11:35:38;100111.16;;;15.03;30.82
33161;BME280;19522;45.656;11.302;2024-01-30T11:38:12;100092.91;;;15.90;30.67
33161;BME280;19522;45.656;11.302;2024-01-30T11:40:39;100098.69;;;15.64;30.12
33161;BME280;19522;45.656;11.302;2024-01-30T11:43:06;100090.06;;;15.20;30.93
33161;BME280;19522;45.656;11.302;2024-01-30T11:45:33;100082.56;;;15.46;31.37
33161;BME280;19522;45.656;11.302;2024-01-30T11:47:59;100087.38;;;15.43;31.38
33161;BME280;19522;45.656;11.302;2024-01-30T11:50:26;100095.34;;;15.53;31.89
33161;BME280;19522;45.656;11.302;2024-01-30T11:52:54;100074.13;;;15.55;31.62
33161;BME280;19522;45.656;11.302;2024-01-30T11:55:20;100066.34;;;16.14;31.58
33161;BME280;19522;45.656;11.302;2024-01-30T11:57:45;100076.22;;;15.45;30.33
33161;BME280;19522;45.656;11.302;2024-01-30T12:00:15;100077.19;;;16.07;31.55
33161;BME280;19522;45.656;11.302;2024-01-30T12:02:41;100064.25;;;16.16;31.21
33161;BME280;19522;45.656;11.302;2024-01-30T12:05:07;100076.06;;;16.16;30.95
33161;BME280;19522;45.656;11.302;2024-01-30T12:07:34;100020.97;;;16.11;30.64
33161;BME280;19522;45.656;11.302;2024-01-30T12:10:00;100063.53;;;16.22;31.23
33161;BME280;19522;45.656;11.302;2024-01-30T12:12:27;100062.91;;;16.65;30.98
33161;BME280;19522;45.656;11.302;2024-01-30T12:14:53;100044.66;;;16.04;30.42
33161;BME280;19522;45.656;11.302;2024-01-30T12:17:31;100061.09;;;16.87;30.43
33161;BME280;19522;45.656;11.302;2024-01-30T12:20:08;100031.97;;;16.56;29.39
33161;BME280;19522;45.656;11.302;2024-01-30T12:22:38;100053.91;;;15.80;30.44
33161;BME280;19522;45.656;11.302;2024-01-30T12:25:07;100036.97;;;16.23;30.21
33161;BME280;19522;45.656;11.302;2024-01-30T12:27:33;100040.47;;;16.31;30.85
33161;BME280;19522;45.656;11.302;2024-01-30T12:29:59;100040.84;;;16.43;30.56
33161;BME280;19522;45.656;11.302;2024-01-30T12:32:24;100033.78;;;16.94;30.39
33161;BME280;19522;45.656;11.302;2024-01-30T12:34:50;100030.91;;;17.17;30.25
33161;BME280;19522;45.656;11.302;2024-01-30T12:37:15;100034.28;;;17.34;29.30
33161;BME280;19522;45.656;11.302;2024-01-30T12:39:47;100025.25;;;17.84;29.54
33161;BME280;19522;45.656;11.302;2024-01-30T12:42:13;100016.22;;;17.90;28.24
33161;BME280;19522;45.656;11.302;2024-01-30T12:44:39;99991.72;;;17.67;28.29
33161;BME280;19522;45.656;11.302;2024-01-30T12:47:05;99996.66;;;16.98;29.02